createdAt,value
2023-03-31T00:00:49.931Z,2.92
2023-03-31T00:03:22.621Z,2.75
2023-03-31T00:05:53.645Z,2.85
2023-03-31T00:08:21.596Z,2.85
2023-03-31T00:10:48.804Z,2.72
2023-03-31T00:13:15.997Z,2.45
2023-03-31T00:15:43.075Z,2.75
2023-03-31T00:18:10.274Z,3.30
2023-03-31T00:20:43.380Z,2.70
2023-03-31T00:23:11.274Z,3.30
2023-03-31T00:25:41.915Z,3.03
2023-03-31T00:28:09.374Z,3.72
2023-03-31T00:30:36.566Z,3.22
2023-03-31T00:33:03.689Z,3.28
2023-03-31T00:35:31.009Z,2.85
2023-03-31T00:37:59.362Z,2.83
2023-03-31T00:40:26.513Z,3.25
2023-03-31T00:42:54.303Z,3.53
2023-03-31T00:45:27.320Z,2.90
2023-03-31T00:48:10.537Z,3.40
2023-03-31T00:51:05.930Z,3.50
2023-03-31T00:53:34.719Z,2.78
2023-03-31T00:56:09.396Z,3.13
2023-03-31T00:58:43.736Z,2.88
2023-03-31T01:01:15.706Z,2.80
2023-03-31T01:03:47.004Z,2.83
2023-03-31T01:06:17.122Z,2.63
2023-03-31T01:08:44.754Z,3.00
2023-03-31T01:11:16.459Z,3.58
2023-03-31T01:13:44.246Z,2.95
2023-03-31T01:16:11.226Z,3.15
2023-03-31T01:18:40.141Z,2.45
2023-03-31T01:21:26.018Z,2.38
2023-03-31T01:24:07.973Z,2.58
2023-03-31T01:27:04.207Z,2.78
2023-03-31T01:30:07.187Z,2.95
2023-03-31T01:32:55.435Z,2.95
2023-03-31T01:35:40.855Z,2.30
2023-03-31T01:38:44.119Z,2.38
2023-03-31T01:41:23.095Z,2.22
2023-03-31T01:44:25.135Z,2.92
2023-03-31T01:47:02.825Z,3.40
2023-03-31T01:49:42.194Z,3.67
2023-03-31T01:52:22.693Z,3.90
2023-03-31T01:54:55.471Z,2.72
2023-03-31T01:57:34.535Z,3.22
2023-03-31T02:00:12.074Z,2.63
2023-03-31T02:03:12.970Z,2.67
2023-03-31T02:06:16.605Z,2.40
2023-03-31T02:08:52.587Z,2.80
2023-03-31T02:11:20.468Z,2.72
2023-03-31T02:13:50.982Z,2.70
2023-03-31T02:16:24.694Z,2.92
2023-03-31T02:19:03.037Z,3.00
2023-03-31T02:21:34.704Z,2.90
2023-03-31T02:24:07.618Z,3.17
2023-03-31T02:26:43.287Z,3.15
2023-03-31T02:29:10.308Z,2.65
2023-03-31T02:31:46.392Z,2.42
2023-03-31T02:34:13.608Z,3.10
2023-03-31T02:36:42.955Z,2.53
2023-03-31T02:39:14.076Z,2.92
2023-03-31T02:41:41.628Z,2.35
2023-03-31T02:44:09.843Z,2.78
2023-03-31T02:46:36.998Z,2.83
2023-03-31T02:49:07.625Z,2.85
2023-03-31T02:51:53.414Z,3.90
2023-03-31T02:54:42.042Z,4.03
2023-03-31T02:57:24.768Z,4.25
2023-03-31T02:59:51.772Z,3.78
2023-03-31T03:02:49.258Z,7.00
2023-03-31T03:05:24.498Z,5.22
2023-03-31T03:08:17.980Z,6.10
2023-03-31T03:11:15.130Z,5.75
2023-03-31T03:13:56.506Z,6.00
2023-03-31T03:16:27.538Z,5.18
2023-03-31T03:18:58.076Z,5.93
2023-03-31T03:21:25.592Z,5.22
2023-03-31T03:23:53.240Z,7.00
2023-03-31T03:26:28.528Z,6.80
2023-03-31T03:28:56.873Z,6.70
2023-03-31T03:31:26.290Z,6.68
2023-03-31T03:33:53.858Z,6.35
2023-03-31T03:36:21.080Z,6.88
2023-03-31T03:38:48.072Z,6.53
2023-03-31T03:41:15.077Z,5.93
2023-03-31T03:43:42.120Z,6.65
2023-03-31T03:46:09.609Z,6.60
2023-03-31T03:48:36.723Z,6.50
2023-03-31T03:51:04.019Z,7.15
2023-03-31T03:53:31.277Z,6.65
2023-03-31T03:55:59.621Z,5.20
2023-03-31T03:58:26.764Z,4.50
2023-03-31T04:00:53.924Z,6.00
2023-03-31T04:03:21.250Z,4.78
2023-03-31T04:05:51.451Z,4.85
2023-03-31T04:08:19.293Z,4.93
2023-03-31T04:10:49.326Z,5.15
2023-03-31T04:13:20.498Z,4.30
2023-03-31T04:15:47.561Z,4.53
2023-03-31T04:18:24.694Z,4.22
2023-03-31T04:21:05.735Z,4.82
2023-03-31T04:23:34.480Z,5.82
2023-03-31T04:26:02.848Z,8.25
2023-03-31T04:28:35.103Z,6.85
2023-03-31T04:31:03.877Z,5.80
2023-03-31T04:33:31.059Z,4.85
2023-03-31T04:35:58.111Z,5.32
2023-03-31T04:38:27.533Z,3.65
2023-03-31T04:40:54.830Z,2.72
2023-03-31T04:43:22.410Z,2.10
2023-03-31T04:45:49.882Z,2.45
2023-03-31T04:48:17.107Z,3.50
2023-03-31T04:50:44.140Z,3.58
2023-03-31T04:53:11.132Z,4.32
2023-03-31T04:55:38.107Z,2.70
2023-03-31T04:58:05.326Z,3.67
2023-03-31T05:00:32.547Z,3.35
2023-03-31T05:03:00.281Z,4.22
2023-03-31T05:05:27.589Z,3.70
2023-03-31T05:07:54.601Z,4.28
2023-03-31T05:10:22.040Z,2.90
2023-03-31T05:12:49.608Z,2.10
2023-03-31T05:15:17.167Z,2.28
2023-03-31T05:17:44.328Z,3.30
2023-03-31T05:20:13.600Z,2.45
2023-03-31T05:22:43.305Z,2.38
2023-03-31T05:25:14.659Z,3.45
2023-03-31T05:27:41.856Z,2.65
2023-03-31T05:30:09.522Z,2.03
2023-03-31T05:32:36.618Z,2.88
2023-03-31T05:35:03.939Z,2.72
2023-03-31T05:37:31.937Z,3.08
2023-03-31T05:39:59.403Z,3.13
2023-03-31T05:42:26.889Z,3.47
2023-03-31T05:44:53.869Z,2.08
2023-03-31T05:47:21.192Z,4.47
2023-03-31T05:49:48.352Z,2.80
2023-03-31T05:52:15.377Z,2.83
2023-03-31T05:54:43.149Z,4.35
2023-03-31T05:57:10.782Z,2.83
2023-03-31T05:59:38.550Z,3.53
2023-03-31T06:02:06.132Z,3.47
2023-03-31T06:04:33.227Z,3.10
2023-03-31T06:07:00.227Z,3.63
2023-03-31T06:09:28.480Z,3.53
2023-03-31T06:11:56.334Z,3.67
2023-03-31T06:14:23.522Z,2.85
2023-03-31T06:16:50.814Z,5.32
2023-03-31T06:19:18.034Z,4.35
2023-03-31T06:21:45.830Z,3.45
2023-03-31T06:24:12.882Z,3.45
2023-03-31T06:26:39.835Z,3.85
2023-03-31T06:29:06.818Z,3.65
2023-03-31T06:31:34.026Z,3.70
2023-03-31T06:34:01.314Z,3.58
2023-03-31T06:36:28.411Z,4.15
2023-03-31T06:38:55.595Z,3.83
2023-03-31T06:41:22.837Z,3.47
2023-03-31T06:43:50.325Z,4.70
2023-03-31T06:46:17.466Z,3.38
2023-03-31T06:48:44.749Z,3.53
2023-03-31T06:51:12.637Z,2.75
2023-03-31T06:53:39.839Z,2.33
2023-03-31T06:56:07.930Z,2.35
2023-03-31T06:58:35.383Z,2.97
2023-03-31T07:01:04.391Z,5.88
2023-03-31T07:03:32.750Z,4.18
2023-03-31T07:06:00.180Z,3.30
2023-03-31T07:08:27.357Z,4.75
2023-03-31T07:10:58.022Z,4.97
2023-03-31T07:13:26.612Z,4.43
2023-03-31T07:15:54.617Z,3.70
2023-03-31T07:18:26.431Z,4.88
2023-03-31T07:20:53.895Z,2.95
2023-03-31T07:23:21.477Z,3.50
2023-03-31T07:25:48.562Z,3.33
2023-03-31T07:28:15.856Z,2.83
2023-03-31T07:30:43.272Z,2.75
2023-03-31T07:33:10.548Z,2.72
2023-03-31T07:35:41.921Z,2.75
2023-03-31T07:38:12.763Z,2.10
2023-03-31T07:40:40.916Z,2.42
2023-03-31T07:43:08.568Z,4.47
2023-03-31T07:45:36.060Z,3.85
2023-03-31T07:48:03.235Z,4.70
2023-03-31T07:50:30.475Z,3.95
2023-03-31T07:52:57.811Z,4.40
2023-03-31T07:55:26.604Z,4.57
2023-03-31T07:57:53.845Z,7.43
2023-03-31T08:00:21.479Z,5.15
2023-03-31T08:02:48.737Z,9.60
2023-03-31T08:05:18.198Z,9.75
2023-03-31T08:07:47.255Z,17.00
2023-03-31T08:10:20.765Z,15.50
2023-03-31T08:12:47.834Z,16.67
2023-03-31T08:15:15.066Z,13.73
2023-03-31T08:17:42.035Z,15.45
2023-03-31T08:20:10.770Z,15.18
2023-03-31T08:22:39.802Z,8.10
2023-03-31T08:25:08.442Z,10.63
2023-03-31T08:27:37.362Z,13.20
2023-03-31T08:30:05.461Z,10.82
2023-03-31T08:32:34.389Z,11.80
2023-03-31T08:35:02.375Z,6.40
2023-03-31T08:37:29.466Z,10.43
2023-03-31T08:39:56.726Z,13.18
2023-03-31T08:42:38.133Z,9.13
2023-03-31T08:45:14.025Z,6.47
2023-03-31T08:47:41.923Z,3.50
2023-03-31T08:50:21.647Z,2.22
2023-03-31T08:52:55.101Z,3.90
2023-03-31T08:55:32.526Z,12.30
2023-03-31T08:58:15.235Z,11.77
2023-03-31T09:01:14.122Z,10.95
2023-03-31T09:04:09.392Z,14.57
2023-03-31T09:06:50.698Z,11.48
2023-03-31T09:09:29.597Z,2.78
2023-03-31T09:12:01.138Z,1.95
2023-03-31T09:14:42.560Z,1.60
2023-03-31T09:17:26.626Z,1.50
2023-03-31T09:20:08.462Z,1.70
2023-03-31T09:22:41.606Z,1.67
2023-03-31T09:25:19.674Z,2.85
2023-03-31T09:27:48.457Z,3.75
2023-03-31T09:30:30.516Z,3.47
2023-03-31T09:33:32.467Z,13.70
2023-03-31T09:36:01.272Z,15.55
2023-03-31T09:38:30.073Z,20.55
2023-03-31T09:41:03.645Z,12.23
2023-03-31T09:43:35.434Z,3.50
2023-03-31T09:46:09.612Z,3.30
2023-03-31T09:48:39.133Z,2.55
2023-03-31T09:51:14.365Z,2.70
2023-03-31T09:53:47.564Z,2.40
2023-03-31T09:56:31.796Z,2.42
2023-03-31T09:59:02.777Z,7.35
2023-03-31T10:01:30.465Z,18.23
2023-03-31T10:03:58.505Z,18.00
2023-03-31T10:06:26.936Z,21.25
2023-03-31T10:09:00.128Z,18.63
2023-03-31T10:11:29.901Z,24.80
2023-03-31T10:14:07.233Z,19.73
2023-03-31T10:16:48.391Z,13.65
2023-03-31T10:19:27.776Z,19.88
2023-03-31T10:22:23.282Z,17.65
2023-03-31T10:24:52.241Z,13.05
2023-03-31T10:27:29.825Z,21.25
2023-03-31T10:29:59.564Z,9.43
2023-03-31T10:32:38.012Z,7.78
2023-03-31T10:35:27.799Z,13.13
2023-03-31T10:38:04.547Z,5.10
2023-03-31T10:40:35.090Z,4.43
2023-03-31T10:43:25.081Z,5.32
2023-03-31T10:46:03.019Z,5.70
2023-03-31T10:48:32.072Z,6.07
2023-03-31T10:51:04.496Z,6.00
2023-03-31T10:53:43.452Z,5.57
2023-03-31T10:56:43.900Z,4.07
2023-03-31T10:59:33.589Z,5.32
2023-03-31T11:02:25.431Z,5.65
2023-03-31T11:04:52.424Z,5.82
2023-03-31T11:07:28.416Z,5.60
2023-03-31T11:10:06.359Z,5.38
2023-03-31T11:13:00.777Z,5.13
2023-03-31T11:15:31.058Z,4.97
2023-03-31T11:18:12.357Z,4.97
2023-03-31T11:21:10.240Z,4.93
2023-03-31T11:23:50.828Z,4.90
2023-03-31T11:26:45.558Z,5.18
2023-03-31T11:29:47.867Z,5.00
2023-03-31T11:32:33.735Z,4.95
2023-03-31T11:35:20.174Z,4.72
2023-03-31T11:38:06.029Z,5.30
2023-03-31T11:40:33.177Z,5.43
2023-03-31T11:43:16.200Z,6.30
2023-03-31T11:45:59.322Z,5.10
2023-03-31T11:48:49.302Z,4.80
2023-03-31T11:51:39.526Z,5.30
2023-03-31T11:54:12.357Z,5.18
2023-03-31T11:56:41.414Z,4.57
2023-03-31T11:59:14.930Z,4.88
2023-03-31T12:02:11.173Z,5.43
2023-03-31T12:04:43.118Z,4.50
2023-03-31T12:07:22.687Z,5.03
2023-03-31T12:10:05.802Z,4.13
2023-03-31T12:12:39.798Z,4.55
2023-03-31T12:15:27.873Z,4.43
2023-03-31T12:18:03.708Z,4.00
2023-03-31T12:20:35.236Z,5.00
2023-03-31T12:23:05.686Z,4.80
2023-03-31T12:25:50.746Z,4.35
2023-03-31T12:28:19.814Z,4.25
2023-03-31T12:30:48.543Z,4.75
2023-03-31T12:33:38.962Z,4.70
2023-03-31T12:36:54.138Z,5.22
2023-03-31T12:39:49.880Z,4.75
2023-03-31T12:42:51.907Z,5.47
2023-03-31T12:45:25.533Z,6.05
2023-03-31T12:48:11.082Z,5.05
2023-03-31T12:51:03.430Z,5.95
2023-03-31T12:53:33.654Z,5.47
2023-03-31T12:56:00.933Z,5.18
2023-03-31T12:58:32.683Z,5.40
2023-03-31T13:01:10.762Z,5.68
2023-03-31T13:03:46.527Z,4.75
2023-03-31T13:06:28.703Z,5.63
2023-03-31T13:09:01.575Z,5.70
2023-03-31T13:11:36.993Z,6.95
2023-03-31T13:14:06.093Z,6.35
2023-03-31T13:16:35.882Z,5.43
2023-03-31T13:19:03.652Z,6.53
2023-03-31T13:21:31.131Z,5.63
2023-03-31T13:24:03.274Z,5.78
2023-03-31T13:26:37.396Z,5.75
2023-03-31T13:29:12.381Z,6.95
2023-03-31T13:32:01.567Z,5.28
2023-03-31T13:34:37.554Z,5.10
2023-03-31T13:37:16.927Z,5.72
2023-03-31T13:40:05.253Z,6.85
2023-03-31T13:43:08.298Z,7.07
2023-03-31T13:45:59.895Z,6.70
2023-03-31T13:48:38.300Z,5.50
2023-03-31T13:51:30.332Z,5.22
2023-03-31T13:54:28.578Z,5.78
2023-03-31T13:57:05.267Z,5.82
2023-03-31T13:59:42.225Z,5.57
2023-03-31T14:03:09.194Z,5.55
2023-03-31T14:05:48.399Z,4.65
2023-03-31T14:08:50.026Z,5.43
2023-03-31T14:11:32.214Z,5.95
2023-03-31T14:14:18.705Z,6.55
2023-03-31T14:16:56.250Z,6.80
2023-03-31T14:19:29.209Z,6.95
2023-03-31T14:22:32.155Z,5.97
2023-03-31T14:25:07.138Z,6.03
2023-03-31T14:28:13.981Z,7.07
2023-03-31T14:30:58.971Z,5.65
2023-03-31T14:33:41.211Z,6.05
2023-03-31T14:36:20.216Z,6.75
2023-03-31T14:38:47.437Z,7.10
2023-03-31T14:41:30.098Z,7.25
2023-03-31T14:44:01.959Z,8.05
2023-03-31T14:46:33.049Z,7.55
2023-03-31T14:49:16.541Z,7.53
2023-03-31T14:51:45.851Z,7.03
2023-03-31T14:54:20.584Z,8.68
2023-03-31T14:56:59.398Z,7.38
2023-03-31T14:59:30.335Z,7.32
2023-03-31T15:01:59.729Z,6.75
2023-03-31T15:04:41.276Z,7.63
2023-03-31T15:07:09.666Z,6.47
2023-03-31T15:09:36.802Z,6.65
2023-03-31T15:12:15.462Z,6.75
2023-03-31T15:14:55.180Z,6.43
2023-03-31T15:17:29.532Z,6.13
2023-03-31T15:19:59.185Z,5.18
2023-03-31T15:22:28.124Z,6.35
2023-03-31T15:24:55.451Z,5.53
2023-03-31T15:27:41.169Z,5.32
2023-03-31T15:30:28.973Z,4.80
2023-03-31T15:33:04.405Z,5.15
2023-03-31T15:35:42.970Z,5.97
2023-03-31T15:38:16.401Z,4.63
2023-03-31T15:40:44.587Z,5.38
2023-03-31T15:43:14.336Z,5.32
2023-03-31T15:45:53.860Z,6.03
2023-03-31T15:48:29.561Z,5.18
2023-03-31T15:51:01.851Z,5.47
2023-03-31T15:53:35.262Z,6.18
2023-03-31T15:56:02.314Z,6.60
2023-03-31T15:58:56.914Z,5.63
2023-03-31T16:01:27.339Z,5.45
2023-03-31T16:03:55.578Z,5.65
2023-03-31T16:06:34.605Z,4.97
2023-03-31T16:09:09.043Z,4.00
2023-03-31T16:11:44.312Z,4.90
2023-03-31T16:14:39.696Z,4.22
2023-03-31T16:17:14.504Z,3.40
2023-03-31T16:19:51.185Z,3.85
2023-03-31T16:22:24.405Z,3.47
2023-03-31T16:24:51.987Z,4.10
2023-03-31T16:27:19.230Z,3.20
2023-03-31T16:29:47.536Z,3.45
2023-03-31T16:32:18.386Z,3.60
2023-03-31T16:34:57.166Z,3.85
2023-03-31T16:37:25.074Z,3.97
2023-03-31T16:39:52.582Z,4.55
2023-03-31T16:42:20.420Z,4.93
2023-03-31T16:44:52.922Z,4.50
2023-03-31T16:47:35.036Z,3.60
2023-03-31T16:50:07.544Z,3.33
2023-03-31T16:52:36.185Z,4.15
2023-03-31T16:55:03.391Z,3.88
2023-03-31T16:57:30.685Z,4.28
2023-03-31T16:59:59.009Z,3.58
2023-03-31T17:02:26.289Z,4.35
2023-03-31T17:04:56.555Z,3.92
2023-03-31T17:07:27.056Z,4.30
2023-03-31T17:09:54.237Z,4.07
2023-03-31T17:12:21.636Z,3.95
2023-03-31T17:14:48.691Z,3.65
2023-03-31T17:17:17.919Z,4.00
2023-03-31T17:19:45.236Z,4.30
2023-03-31T17:22:12.433Z,4.13
2023-03-31T17:24:39.571Z,4.15
2023-03-31T17:27:06.939Z,4.47
2023-03-31T17:29:33.851Z,3.55
2023-03-31T17:32:01.445Z,5.47
2023-03-31T17:34:28.408Z,3.80
2023-03-31T17:36:57.165Z,3.30
2023-03-31T17:39:24.594Z,3.05
2023-03-31T17:41:51.794Z,4.85
2023-03-31T17:44:18.942Z,4.82
2023-03-31T17:46:46.304Z,4.22
2023-03-31T17:49:13.267Z,3.95
2023-03-31T17:51:40.687Z,3.70
2023-03-31T17:54:07.868Z,4.38
2023-03-31T17:56:34.857Z,4.10
2023-03-31T17:59:01.932Z,5.35
2023-03-31T18:01:28.964Z,3.40
2023-03-31T18:03:57.199Z,3.70
2023-03-31T18:06:24.969Z,3.80
2023-03-31T18:08:51.901Z,3.22
2023-03-31T18:11:18.943Z,3.70
2023-03-31T18:13:46.237Z,3.20
2023-03-31T18:16:14.062Z,3.15
2023-03-31T18:18:41.697Z,3.67
2023-03-31T18:21:11.332Z,3.10
2023-03-31T18:23:39.129Z,3.40
2023-03-31T18:26:11.417Z,3.67
2023-03-31T18:28:40.740Z,3.65
2023-03-31T18:31:08.949Z,2.95
2023-03-31T18:33:36.794Z,3.35
2023-03-31T18:36:04.524Z,3.30
2023-03-31T18:38:32.742Z,3.78
2023-03-31T18:41:00.333Z,3.38
2023-03-31T18:43:27.766Z,3.67
2023-03-31T18:45:56.761Z,3.13
2023-03-31T18:48:24.102Z,3.30
2023-03-31T18:50:52.766Z,3.42
2023-03-31T18:53:21.192Z,4.03
2023-03-31T18:55:59.032Z,3.25
2023-03-31T18:58:29.005Z,3.65
2023-03-31T19:00:57.632Z,4.18
2023-03-31T19:03:26.604Z,4.03
2023-03-31T19:06:12.187Z,3.03
2023-03-31T19:08:40.154Z,3.45
2023-03-31T19:11:12.886Z,2.67
2023-03-31T19:13:43.196Z,3.47
2023-03-31T19:16:11.880Z,2.85
2023-03-31T19:18:39.035Z,3.28
2023-03-31T19:21:06.392Z,2.92
2023-03-31T19:23:34.276Z,2.70
2023-03-31T19:26:02.714Z,2.85
2023-03-31T19:28:30.726Z,3.63
2023-03-31T19:30:58.894Z,2.95
2023-03-31T19:33:26.956Z,3.67
2023-03-31T19:35:54.202Z,3.13
2023-03-31T19:38:27.114Z,3.13
2023-03-31T19:40:54.190Z,3.78
2023-03-31T19:43:23.903Z,4.30
2023-03-31T19:45:57.014Z,4.20
2023-03-31T19:48:26.284Z,4.45
2023-03-31T19:50:56.417Z,5.07
2023-03-31T19:53:24.275Z,4.35
2023-03-31T19:55:57.184Z,4.47
2023-03-31T19:58:24.886Z,4.07
2023-03-31T20:00:56.653Z,3.33
2023-03-31T20:03:25.270Z,3.33
2023-03-31T20:05:54.073Z,3.70
2023-03-31T20:08:21.075Z,3.60
2023-03-31T20:10:49.276Z,3.67
2023-03-31T20:13:17.842Z,3.35
2023-03-31T20:15:44.776Z,2.95
2023-03-31T20:18:11.857Z,3.22
2023-03-31T20:20:41.134Z,2.55
2023-03-31T20:23:08.125Z,3.38
2023-03-31T20:25:37.698Z,2.72
2023-03-31T20:28:04.999Z,2.97
2023-03-31T20:30:31.918Z,3.42
2023-03-31T20:33:00.135Z,3.20
2023-03-31T20:35:27.474Z,3.33
2023-03-31T20:37:54.587Z,3.22
2023-03-31T20:40:21.538Z,3.35
2023-03-31T20:42:48.581Z,3.45
2023-03-31T20:45:15.793Z,3.55
2023-03-31T20:47:43.512Z,3.78
2023-03-31T20:50:10.577Z,2.85
2023-03-31T20:52:37.714Z,3.63
2023-03-31T20:55:04.982Z,2.92
2023-03-31T20:57:32.549Z,2.58
2023-03-31T21:00:01.828Z,2.33
2023-03-31T21:02:28.883Z,2.35
2023-03-31T21:04:55.884Z,2.13
2023-03-31T21:07:22.847Z,2.30
2023-03-31T21:09:49.963Z,1.58
2023-03-31T21:12:16.849Z,2.30
2023-03-31T21:14:43.865Z,1.95
2023-03-31T21:17:10.977Z,2.05
2023-03-31T21:19:37.871Z,1.90
2023-03-31T21:22:04.975Z,2.50
2023-03-31T21:24:32.111Z,2.22
2023-03-31T21:26:59.179Z,1.90
2023-03-31T21:29:27.001Z,2.63
2023-03-31T21:31:53.944Z,3.35
2023-03-31T21:34:20.915Z,2.60
2023-03-31T21:36:50.078Z,2.28
2023-03-31T21:39:16.964Z,2.28
2023-03-31T21:41:44.136Z,2.80
2023-03-31T21:44:11.270Z,1.98
2023-03-31T21:46:38.652Z,1.85
2023-03-31T21:49:05.650Z,2.10
2023-03-31T21:51:32.834Z,2.15
2023-03-31T21:53:59.813Z,1.60
2023-03-31T21:56:28.376Z,1.98
2023-03-31T21:58:59.261Z,2.10
2023-03-31T22:01:26.309Z,1.80
2023-03-31T22:03:53.360Z,2.03
2023-03-31T22:06:21.608Z,3.25
2023-03-31T22:08:48.937Z,1.50
2023-03-31T22:11:16.191Z,2.05
2023-03-31T22:13:43.234Z,2.25
2023-03-31T22:16:19.298Z,2.47
2023-03-31T22:18:47.719Z,2.25
2023-03-31T22:21:32.629Z,2.25
2023-03-31T22:24:01.310Z,1.88
2023-03-31T22:26:31.121Z,1.77
2023-03-31T22:28:58.869Z,2.00
2023-03-31T22:31:27.091Z,2.40
2023-03-31T22:33:54.255Z,2.20
2023-03-31T22:36:21.484Z,2.30
2023-03-31T22:38:48.958Z,2.30
2023-03-31T22:41:16.336Z,3.05
2023-03-31T22:43:45.822Z,2.20
2023-03-31T22:46:14.018Z,2.17
2023-03-31T22:48:40.950Z,3.08
2023-03-31T22:51:08.889Z,2.58
2023-03-31T22:53:36.112Z,2.30
2023-03-31T22:56:05.900Z,1.88
2023-03-31T22:58:33.141Z,2.20
2023-03-31T23:01:01.792Z,1.85
2023-03-31T23:03:29.717Z,2.17
2023-03-31T23:05:56.775Z,2.03
2023-03-31T23:08:23.993Z,2.25
2023-03-31T23:10:58.702Z,2.60
2023-03-31T23:13:26.803Z,2.00
2023-03-31T23:15:54.053Z,1.83
2023-03-31T23:18:22.069Z,2.17
2023-03-31T23:20:49.400Z,2.30
2023-03-31T23:23:16.676Z,2.47
2023-03-31T23:25:43.669Z,2.22
2023-03-31T23:28:10.617Z,2.03
2023-03-31T23:30:37.540Z,2.25
2023-03-31T23:33:04.594Z,1.88
2023-03-31T23:35:31.755Z,1.65
2023-03-31T23:37:58.847Z,1.60
2023-03-31T23:40:25.763Z,2.17
2023-03-31T23:42:52.721Z,1.42
2023-03-31T23:45:19.629Z,1.80
2023-03-31T23:47:46.680Z,1.60
2023-03-31T23:50:13.597Z,1.15
2023-03-31T23:52:40.643Z,1.25
2023-03-31T23:55:07.971Z,0.80
2023-03-31T23:57:34.917Z,0.88
